sensor_id;sensor_type;location;lat;lon;timestamp;temperature;humidity
67279;DHT22;54193;53.746;10.058;2023-05-07T00:02:29;8.76;86.69
67279;DHT22;54193;53.746;10.058;2023-05-07T00:05:16;8.75;86.58
67279;DHT22;54193;53.746;10.058;2023-05-07T00:08:01;8.75;86.65
67279;DHT22;54193;53.746;10.058;2023-05-07T00:10:47;8.72;86.76
67279;DHT22;54193;53.746;10.058;2023-05-07T00:13:33;8.73;86.73
67279;DHT22;54193;53.746;10.058;2023-05-07T00:16:20;8.73;86.84
67279;DHT22;54193;53.746;10.058;2023-05-07T00:19:06;8.75;86.87
67279;DHT22;54193;53.746;10.058;2023-05-07T00:21:52;8.71;86.54
67279;DHT22;54193;53.746;10.058;2023-05-07T00:24:39;8.73;86.62
67279;DHT22;54193;53.746;10.058;2023-05-07T00:27:25;8.72;86.72
67279;DHT22;54193;53.746;10.058;2023-05-07T00:30:11;8.73;86.79
67279;DHT22;54193;53.746;10.058;2023-05-07T00:32:56;8.75;86.84
67279;DHT22;54193;53.746;10.058;2023-05-07T00:35:42;8.73;86.99
67279;DHT22;54193;53.746;10.058;2023-05-07T00:38:28;8.73;86.86
67279;DHT22;54193;53.746;10.058;2023-05-07T00:41:14;8.72;87.01
67279;DHT22;54193;53.746;10.058;2023-05-07T00:43:59;8.71;87.07
67279;DHT22;54193;53.746;10.058;2023-05-07T00:46:46;8.69;87.03
67279;DHT22;54193;53.746;10.058;2023-05-07T00:49:44;8.66;87.07
67279;DHT22;54193;53.746;10.058;2023-05-07T00:52:29;8.71;87.26
67279;DHT22;54193;53.746;10.058;2023-05-07T00:55:15;8.69;87.16
67279;DHT22;54193;53.746;10.058;2023-05-07T00:58:01;8.68;87.07
67279;DHT22;54193;53.746;10.058;2023-05-07T01:00:46;8.66;87.08
67279;DHT22;54193;53.746;10.058;2023-05-07T01:03:32;8.66;87.26
67279;DHT22;54193;53.746;10.058;2023-05-07T01:06:18;8.62;86.83
67279;DHT22;54193;53.746;10.058;2023-05-07T01:09:06;8.64;86.79
67279;DHT22;54193;53.746;10.058;2023-05-07T01:11:53;8.64;86.86
67279;DHT22;54193;53.746;10.058;2023-05-07T01:14:40;8.62;86.71
67279;DHT22;54193;53.746;10.058;2023-05-07T01:17:25;8.61;86.87
67279;DHT22;54193;53.746;10.058;2023-05-07T01:20:11;8.65;86.95
67279;DHT22;54193;53.746;10.058;2023-05-07T01:22:57;8.59;86.86
67279;DHT22;54193;53.746;10.058;2023-05-07T01:25:43;8.62;87.01
67279;DHT22;54193;53.746;10.058;2023-05-07T01:28:28;8.62;87.00
67279;DHT22;54193;53.746;10.058;2023-05-07T01:31:15;8.62;86.95
67279;DHT22;54193;53.746;10.058;2023-05-07T01:34:03;8.61;86.99
67279;DHT22;54193;53.746;10.058;2023-05-07T01:36:49;8.58;86.99
67279;DHT22;54193;53.746;10.058;2023-05-07T01:39:37;8.55;86.86
67279;DHT22;54193;53.746;10.058;2023-05-07T01:42:23;8.55;86.85
67279;DHT22;54193;53.746;10.058;2023-05-07T01:45:10;8.54;86.81
67279;DHT22;54193;53.746;10.058;2023-05-07T01:47:56;8.58;86.97
67279;DHT22;54193;53.746;10.058;2023-05-07T01:50:43;8.54;86.92
67279;DHT22;54193;53.746;10.058;2023-05-07T01:53:35;8.54;86.89
67279;DHT22;54193;53.746;10.058;2023-05-07T01:56:21;8.49;86.69
67279;DHT22;54193;53.746;10.058;2023-05-07T01:59:07;8.55;86.82
67279;DHT22;54193;53.746;10.058;2023-05-07T02:01:52;8.51;86.81
67279;DHT22;54193;53.746;10.058;2023-05-07T02:04:38;8.51;86.81
67279;DHT22;54193;53.746;10.058;2023-05-07T02:07:23;8.52;86.74
67279;DHT22;54193;53.746;10.058;2023-05-07T02:10:10;8.54;86.95
67279;DHT22;54193;53.746;10.058;2023-05-07T02:12:55;8.55;86.98
67279;DHT22;54193;53.746;10.058;2023-05-07T02:15:41;8.52;87.08
67279;DHT22;54193;53.746;10.058;2023-05-07T02:18:26;8.52;87.12
67279;DHT22;54193;53.746;10.058;2023-05-07T02:21:12;8.58;87.31
67279;DHT22;54193;53.746;10.058;2023-05-07T02:23:58;8.54;87.37
67279;DHT22;54193;53.746;10.058;2023-05-07T02:26:43;8.51;87.46
67279;DHT22;54193;53.746;10.058;2023-05-07T02:29:29;8.45;87.48
67279;DHT22;54193;53.746;10.058;2023-05-07T02:32:15;8.47;87.25
67279;DHT22;54193;53.746;10.058;2023-05-07T02:35:00;8.45;86.85
67279;DHT22;54193;53.746;10.058;2023-05-07T02:37:46;8.49;86.93
67279;DHT22;54193;53.746;10.058;2023-05-07T02:40:32;8.49;86.76
67279;DHT22;54193;53.746;10.058;2023-05-07T02:43:19;8.51;86.78
67279;DHT22;54193;53.746;10.058;2023-05-07T02:46:06;8.51;86.78
67279;DHT22;54193;53.746;10.058;2023-05-07T02:48:52;8.49;86.97
67279;DHT22;54193;53.746;10.058;2023-05-07T02:51:37;8.51;87.15
67279;DHT22;54193;53.746;10.058;2023-05-07T02:54:23;8.48;87.04
67279;DHT22;54193;53.746;10.058;2023-05-07T02:57:08;8.49;87.19
67279;DHT22;54193;53.746;10.058;2023-05-07T02:59:54;8.48;87.19
67279;DHT22;54193;53.746;10.058;2023-05-07T03:02:40;8.49;87.12
67279;DHT22;54193;53.746;10.058;2023-05-07T03:05:25;8.45;86.82
67279;DHT22;54193;53.746;10.058;2023-05-07T03:08:11;8.42;86.72
67279;DHT22;54193;53.746;10.058;2023-05-07T03:10:57;8.47;86.90
67279;DHT22;54193;53.746;10.058;2023-05-07T03:13:43;8.47;86.85
67279;DHT22;54193;53.746;10.058;2023-05-07T03:16:28;8.42;86.77
67279;DHT22;54193;53.746;10.058;2023-05-07T03:19:14;8.45;86.70
67279;DHT22;54193;53.746;10.058;2023-05-07T03:21:59;8.48;86.74
67279;DHT22;54193;53.746;10.058;2023-05-07T03:24:45;8.41;86.63
67279;DHT22;54193;53.746;10.058;2023-05-07T03:27:31;8.44;86.69
67279;DHT22;54193;53.746;10.058;2023-05-07T03:30:16;8.42;86.68
67279;DHT22;54193;53.746;10.058;2023-05-07T03:33:02;8.42;86.54
67279;DHT22;54193;53.746;10.058;2023-05-07T03:35:48;8.41;86.65
67279;DHT22;54193;53.746;10.058;2023-05-07T03:38:33;8.45;86.44
67279;DHT22;54193;53.746;10.058;2023-05-07T03:41:19;8.44;86.32
67279;DHT22;54193;53.746;10.058;2023-05-07T03:44:05;8.47;86.20
67279;DHT22;54193;53.746;10.058;2023-05-07T03:46:51;8.45;85.97
67279;DHT22;54193;53.746;10.058;2023-05-07T03:49:37;8.49;86.20
67279;DHT22;54193;53.746;10.058;2023-05-07T03:52:22;8.44;85.82
67279;DHT22;54193;53.746;10.058;2023-05-07T03:55:11;8.47;85.71
67279;DHT22;54193;53.746;10.058;2023-05-07T03:57:56;8.51;85.73
67279;DHT22;54193;53.746;10.058;2023-05-07T04:00:42;8.52;85.76
67279;DHT22;54193;53.746;10.058;2023-05-07T04:03:28;8.55;85.58
67279;DHT22;54193;53.746;10.058;2023-05-07T04:06:15;8.57;85.57
67279;DHT22;54193;53.746;10.058;2023-05-07T04:09:01;8.54;85.61
67279;DHT22;54193;53.746;10.058;2023-05-07T04:11:47;8.54;85.66
67279;DHT22;54193;53.746;10.058;2023-05-07T04:14:32;8.55;85.63
67279;DHT22;54193;53.746;10.058;2023-05-07T04:17:18;8.58;85.56
67279;DHT22;54193;53.746;10.058;2023-05-07T04:20:04;8.57;85.66
67279;DHT22;54193;53.746;10.058;2023-05-07T04:22:50;8.59;85.72
67279;DHT22;54193;53.746;10.058;2023-05-07T04:25:35;8.61;85.67
67279;DHT22;54193;53.746;10.058;2023-05-07T04:28:21;8.61;85.76
67279;DHT22;54193;53.746;10.058;2023-05-07T04:31:07;8.61;85.88
67279;DHT22;54193;53.746;10.058;2023-05-07T04:33:52;8.64;86.04
67279;DHT22;54193;53.746;10.058;2023-05-07T04:36:38;8.64;85.79
67279;DHT22;54193;53.746;10.058;2023-05-07T04:39:24;8.65;86.06
67279;DHT22;54193;53.746;10.058;2023-05-07T04:42:14;8.62;86.14
67279;DHT22;54193;53.746;10.058;2023-05-07T04:45:01;8.58;86.13
67279;DHT22;54193;53.746;10.058;2023-05-07T04:47:47;8.58;86.18
67279;DHT22;54193;53.746;10.058;2023-05-07T04:50:33;8.59;86.23
67279;DHT22;54193;53.746;10.058;2023-05-07T04:53:19;8.64;86.28
67279;DHT22;54193;53.746;10.058;2023-05-07T04:56:05;8.62;86.36
67279;DHT22;54193;53.746;10.058;2023-05-07T04:58:51;8.64;86.36
67279;DHT22;54193;53.746;10.058;2023-05-07T05:01:36;8.66;86.42
67279;DHT22;54193;53.746;10.058;2023-05-07T05:04:22;8.66;86.30
67279;DHT22;54193;53.746;10.058;2023-05-07T05:07:07;8.68;86.49
67279;DHT22;54193;53.746;10.058;2023-05-07T05:09:53;8.68;86.27
67279;DHT22;54193;53.746;10.058;2023-05-07T05:12:39;8.64;85.87
67279;DHT22;54193;53.746;10.058;2023-05-07T05:15:25;8.66;86.08
67279;DHT22;54193;53.746;10.058;2023-05-07T05:18:10;8.75;85.87
67279;DHT22;54193;53.746;10.058;2023-05-07T05:20:56;8.71;85.84
67279;DHT22;54193;53.746;10.058;2023-05-07T05:23:41;8.72;85.98
67279;DHT22;54193;53.746;10.058;2023-05-07T05:26:27;8.71;86.02
67279;DHT22;54193;53.746;10.058;2023-05-07T05:29:13;8.73;86.07
67279;DHT22;54193;53.746;10.058;2023-05-07T05:31:58;8.80;86.13
67279;DHT22;54193;53.746;10.058;2023-05-07T05:34:44;8.76;85.99
67279;DHT22;54193;53.746;10.058;2023-05-07T05:37:30;8.83;86.19
67279;DHT22;54193;53.746;10.058;2023-05-07T05:40:16;8.85;86.22
67279;DHT22;54193;53.746;10.058;2023-05-07T05:43:02;8.86;86.05
67279;DHT22;54193;53.746;10.058;2023-05-07T05:45:48;8.86;86.01
67279;DHT22;54193;53.746;10.058;2023-05-07T05:48:33;8.86;86.21
67279;DHT22;54193;53.746;10.058;2023-05-07T05:51:20;8.85;86.04
67279;DHT22;54193;53.746;10.058;2023-05-07T05:54:06;8.82;85.41
67279;DHT22;54193;53.746;10.058;2023-05-07T05:56:51;8.89;85.42
67279;DHT22;54193;53.746;10.058;2023-05-07T05:59:37;8.96;85.05
67279;DHT22;54193;53.746;10.058;2023-05-07T06:02:23;8.99;84.89
67279;DHT22;54193;53.746;10.058;2023-05-07T06:05:09;9.03;84.84
67279;DHT22;54193;53.746;10.058;2023-05-07T06:07:54;9.13;84.67
67279;DHT22;54193;53.746;10.058;2023-05-07T06:10:40;9.14;84.33
67279;DHT22;54193;53.746;10.058;2023-05-07T06:13:26;9.23;84.52
67279;DHT22;54193;53.746;10.058;2023-05-07T06:16:11;9.26;84.17
67279;DHT22;54193;53.746;10.058;2023-05-07T06:18:57;9.37;83.82
67279;DHT22;54193;53.746;10.058;2023-05-07T06:21:42;9.33;84.12
67279;DHT22;54193;53.746;10.058;2023-05-07T06:24:28;9.51;84.05
67279;DHT22;54193;53.746;10.058;2023-05-07T06:27:14;9.35;84.05
67279;DHT22;54193;53.746;10.058;2023-05-07T06:29:59;9.48;83.98
67279;DHT22;54193;53.746;10.058;2023-05-07T06:32:45;9.45;83.00
67279;DHT22;54193;53.746;10.058;2023-05-07T06:35:31;9.52;83.13
67279;DHT22;54193;53.746;10.058;2023-05-07T06:38:16;9.51;82.84
67279;DHT22;54193;53.746;10.058;2023-05-07T06:41:02;9.55;82.63
67279;DHT22;54193;53.746;10.058;2023-05-07T06:43:48;9.51;82.69
67279;DHT22;54193;53.746;10.058;2023-05-07T06:46:34;9.59;82.36
67279;DHT22;54193;53.746;10.058;2023-05-07T06:49:19;9.68;82.47
67279;DHT22;54193;53.746;10.058;2023-05-07T06:52:05;9.79;82.33
67279;DHT22;54193;53.746;10.058;2023-05-07T06:54:51;9.81;82.27
67279;DHT22;54193;53.746;10.058;2023-05-07T06:57:37;9.75;81.92
67279;DHT22;54193;53.746;10.058;2023-05-07T07:00:23;9.89;81.75
67279;DHT22;54193;53.746;10.058;2023-05-07T07:03:09;9.86;81.25
67279;DHT22;54193;53.746;10.058;2023-05-07T07:05:55;10.00;81.37
67279;DHT22;54193;53.746;10.058;2023-05-07T07:08:40;9.99;81.12
67279;DHT22;54193;53.746;10.058;2023-05-07T07:11:26;10.16;81.40
67279;DHT22;54193;53.746;10.058;2023-05-07T07:14:11;10.16;80.90
67279;DHT22;54193;53.746;10.058;2023-05-07T07:16:58;10.14;80.61
67279;DHT22;54193;53.746;10.058;2023-05-07T07:19:44;10.17;80.70
67279;DHT22;54193;53.746;10.058;2023-05-07T07:22:29;9.98;80.85
67279;DHT22;54193;53.746;10.058;2023-05-07T07:25:15;9.99;80.84
67279;DHT22;54193;53.746;10.058;2023-05-07T07:28:01;10.10;80.50
67279;DHT22;54193;53.746;10.058;2023-05-07T07:30:46;9.99;80.07
67279;DHT22;54193;53.746;10.058;2023-05-07T07:33:32;10.20;80.55
67279;DHT22;54193;53.746;10.058;2023-05-07T07:36:18;10.09;80.38
67279;DHT22;54193;53.746;10.058;2023-05-07T07:39:03;10.21;80.38
67279;DHT22;54193;53.746;10.058;2023-05-07T07:41:49;10.20;80.63
67279;DHT22;54193;53.746;10.058;2023-05-07T07:44:35;10.26;80.23
67279;DHT22;54193;53.746;10.058;2023-05-07T07:47:20;10.18;79.69
67279;DHT22;54193;53.746;10.058;2023-05-07T07:50:08;10.20;80.20
67279;DHT22;54193;53.746;10.058;2023-05-07T07:52:53;10.30;80.17
67279;DHT22;54193;53.746;10.058;2023-05-07T07:55:40;10.40;80.37
67279;DHT22;54193;53.746;10.058;2023-05-07T07:58:26;10.36;79.66
67279;DHT22;54193;53.746;10.058;2023-05-07T08:01:11;10.40;79.97
67279;DHT22;54193;53.746;10.058;2023-05-07T08:03:58;10.33;79.76
67279;DHT22;54193;53.746;10.058;2023-05-07T08:06:44;10.50;79.95
67279;DHT22;54193;53.746;10.058;2023-05-07T08:09:29;10.36;79.50
67279;DHT22;54193;53.746;10.058;2023-05-07T08:12:15;10.47;79.81
67279;DHT22;54193;53.746;10.058;2023-05-07T08:15:01;10.72;79.56
67279;DHT22;54193;53.746;10.058;2023-05-07T08:17:46;10.75;79.13
67279;DHT22;54193;53.746;10.058;2023-05-07T08:20:32;10.67;79.20
67279;DHT22;54193;53.746;10.058;2023-05-07T08:23:18;10.48;78.94
67279;DHT22;54193;53.746;10.058;2023-05-07T08:26:04;10.88;78.32
67279;DHT22;54193;53.746;10.058;2023-05-07T08:28:50;10.71;78.79
67279;DHT22;54193;53.746;10.058;2023-05-07T08:31:36;11.05;78.66
67279;DHT22;54193;53.746;10.058;2023-05-07T08:34:22;11.18;78.04
67279;DHT22;54193;53.746;10.058;2023-05-07T08:37:08;11.05;77.94
67279;DHT22;54193;53.746;10.058;2023-05-07T08:39:53;10.82;79.01
67279;DHT22;54193;53.746;10.058;2023-05-07T08:42:39;11.09;78.99
67279;DHT22;54193;53.746;10.058;2023-05-07T08:45:26;11.34;78.02
67279;DHT22;54193;53.746;10.058;2023-05-07T08:48:17;11.19;78.35
67279;DHT22;54193;53.746;10.058;2023-05-07T08:51:02;11.05;78.64
67279;DHT22;54193;53.746;10.058;2023-05-07T08:53:49;11.00;78.76
67279;DHT22;54193;53.746;10.058;2023-05-07T08:56:35;10.96;78.80
67279;DHT22;54193;53.746;10.058;2023-05-07T08:59:21;11.16;78.41
67279;DHT22;54193;53.746;10.058;2023-05-07T09:02:08;10.95;78.68
67279;DHT22;54193;53.746;10.058;2023-05-07T09:04:55;11.26;78.62
67279;DHT22;54193;53.746;10.058;2023-05-07T09:07:40;11.29;77.95
67279;DHT22;54193;53.746;10.058;2023-05-07T09:10:26;11.34;77.46
67279;DHT22;54193;53.746;10.058;2023-05-07T09:13:12;11.57;77.67
67279;DHT22;54193;53.746;10.058;2023-05-07T09:16:10;11.67;76.60
67279;DHT22;54193;53.746;10.058;2023-05-07T09:18:58;11.40;77.07
67279;DHT22;54193;53.746;10.058;2023-05-07T09:21:44;11.40;77.58
67279;DHT22;54193;53.746;10.058;2023-05-07T09:24:30;11.34;77.23
67279;DHT22;54193;53.746;10.058;2023-05-07T09:27:20;11.53;77.53
67279;DHT22;54193;53.746;10.058;2023-05-07T09:30:06;11.27;77.61
67279;DHT22;54193;53.746;10.058;2023-05-07T09:32:53;11.12;77.89
67279;DHT22;54193;53.746;10.058;2023-05-07T09:35:39;11.19;76.95
67279;DHT22;54193;53.746;10.058;2023-05-07T09:38:25;11.31;77.30
67279;DHT22;54193;53.746;10.058;2023-05-07T09:41:12;11.47;76.99
67279;DHT22;54193;53.746;10.058;2023-05-07T09:43:58;11.43;76.73
67279;DHT22;54193;53.746;10.058;2023-05-07T09:46:44;11.60;77.28
67279;DHT22;54193;53.746;10.058;2023-05-07T09:49:34;11.63;76.72
67279;DHT22;54193;53.746;10.058;2023-05-07T09:52:21;12.03;75.57
67279;DHT22;54193;53.746;10.058;2023-05-07T09:55:08;11.92;75.82
67279;DHT22;54193;53.746;10.058;2023-05-07T09:57:54;11.89;75.82
67279;DHT22;54193;53.746;10.058;2023-05-07T10:00:41;12.15;74.68
67279;DHT22;54193;53.746;10.058;2023-05-07T10:03:29;12.83;74.26
67279;DHT22;54193;53.746;10.058;2023-05-07T10:06:17;12.99;74.70
67279;DHT22;54193;53.746;10.058;2023-05-07T10:09:04;13.27;72.76
67279;DHT22;54193;53.746;10.058;2023-05-07T10:11:53;13.14;72.22
67279;DHT22;54193;53.746;10.058;2023-05-07T10:14:40;12.85;72.75
67279;DHT22;54193;53.746;10.058;2023-05-07T10:17:26;13.20;72.78
67279;DHT22;54193;53.746;10.058;2023-05-07T10:20:11;13.43;71.81
67279;DHT22;54193;53.746;10.058;2023-05-07T10:22:58;13.30;70.78
67279;DHT22;54193;53.746;10.058;2023-05-07T10:25:44;13.49;70.41
67279;DHT22;54193;53.746;10.058;2023-05-07T10:28:32;13.15;71.33
67279;DHT22;54193;53.746;10.058;2023-05-07T10:34:29;13.64;71.66
67279;DHT22;54193;53.746;10.058;2023-05-07T10:37:18;13.97;69.97
67279;DHT22;54193;53.746;10.058;2023-05-07T10:40:04;13.64;70.57
67279;DHT22;54193;53.746;10.058;2023-05-07T10:43:02;13.06;69.91
67279;DHT22;54193;53.746;10.058;2023-05-07T10:46:09;13.33;70.62
67279;DHT22;54193;53.746;10.058;2023-05-07T10:52:13;13.64;71.75
67279;DHT22;54193;53.746;10.058;2023-05-07T10:58:25;12.91;72.22
67279;DHT22;54193;53.746;10.058;2023-05-07T11:01:11;12.94;72.88
67279;DHT22;54193;53.746;10.058;2023-05-07T11:04:15;13.35;71.68
67279;DHT22;54193;53.746;10.058;2023-05-07T11:09:59;13.26;71.71
67279;DHT22;54193;53.746;10.058;2023-05-07T11:12:51;13.30;71.82
67279;DHT22;54193;53.746;10.058;2023-05-07T11:15:39;13.38;71.02
67279;DHT22;54193;53.746;10.058;2023-05-07T11:18:54;13.19;71.80
67279;DHT22;54193;53.746;10.058;2023-05-07T11:21:41;13.33;72.18
67279;DHT22;54193;53.746;10.058;2023-05-07T11:24:27;13.22;71.09
67279;DHT22;54193;53.746;10.058;2023-05-07T11:27:13;13.25;71.04
67279;DHT22;54193;53.746;10.058;2023-05-07T11:29:59;13.42;71.14
67279;DHT22;54193;53.746;10.058;2023-05-07T11:32:47;13.36;70.32
67279;DHT22;54193;53.746;10.058;2023-05-07T11:35:34;13.30;70.24
67279;DHT22;54193;53.746;10.058;2023-05-07T11:38:20;13.49;71.08
67279;DHT22;54193;53.746;10.058;2023-05-07T11:41:07;13.71;70.80
67279;DHT22;54193;53.746;10.058;2023-05-07T11:43:57;13.54;70.49
67279;DHT22;54193;53.746;10.058;2023-05-07T11:46:43;13.44;70.33
67279;DHT22;54193;53.746;10.058;2023-05-07T11:49:34;13.80;70.09
67279;DHT22;54193;53.746;10.058;2023-05-07T11:52:22;13.88;70.55
67279;DHT22;54193;53.746;10.058;2023-05-07T11:55:08;14.08;70.45
67279;DHT22;54193;53.746;10.058;2023-05-07T11:57:53;14.28;68.99
67279;DHT22;54193;53.746;10.058;2023-05-07T12:00:48;14.09;69.21
67279;DHT22;54193;53.746;10.058;2023-05-07T12:03:33;14.22;69.51
67279;DHT22;54193;53.746;10.058;2023-05-07T12:06:19;14.25;69.61
67279;DHT22;54193;53.746;10.058;2023-05-07T12:09:05;14.32;69.95
67279;DHT22;54193;53.746;10.058;2023-05-07T12:11:52;14.60;68.71
67279;DHT22;54193;53.746;10.058;2023-05-07T12:14:40;14.50;68.79
67279;DHT22;54193;53.746;10.058;2023-05-07T12:17:25;14.66;69.03
67279;DHT22;54193;53.746;10.058;2023-05-07T12:20:11;14.60;68.33
67279;DHT22;54193;53.746;10.058;2023-05-07T12:22:57;14.77;69.37
67279;DHT22;54193;53.746;10.058;2023-05-07T12:25:43;14.76;68.54
67279;DHT22;54193;53.746;10.058;2023-05-07T12:28:36;14.77;67.75
67279;DHT22;54193;53.746;10.058;2023-05-07T12:31:25;14.85;67.33
67279;DHT22;54193;53.746;10.058;2023-05-07T12:34:11;14.49;66.60
67279;DHT22;54193;53.746;10.058;2023-05-07T12:36:57;14.69;68.23
67279;DHT22;54193;53.746;10.058;2023-05-07T12:40:03;14.83;68.92
67279;DHT22;54193;53.746;10.058;2023-05-07T12:42:53;14.97;68.13
67279;DHT22;54193;53.746;10.058;2023-05-07T12:45:42;14.98;67.48
67279;DHT22;54193;53.746;10.058;2023-05-07T12:48:27;15.04;67.99
67279;DHT22;54193;53.746;10.058;2023-05-07T12:51:13;15.42;67.47
67279;DHT22;54193;53.746;10.058;2023-05-07T12:54:00;15.32;66.41
67279;DHT22;54193;53.746;10.058;2023-05-07T12:56:46;15.29;66.84
67279;DHT22;54193;53.746;10.058;2023-05-07T12:59:39;15.24;66.11
67279;DHT22;54193;53.746;10.058;2023-05-07T13:02:32;14.98;66.17
67279;DHT22;54193;53.746;10.058;2023-05-07T13:05:18;15.07;66.90
67279;DHT22;54193;53.746;10.058;2023-05-07T13:08:04;15.59;66.69
67279;DHT22;54193;53.746;10.058;2023-05-07T13:10:49;15.59;65.92
67279;DHT22;54193;53.746;10.058;2023-05-07T13:13:36;15.82;65.85
67279;DHT22;54193;53.746;10.058;2023-05-07T13:16:22;15.67;63.59
67279;DHT22;54193;53.746;10.058;2023-05-07T13:19:07;15.62;63.30
67279;DHT22;54193;53.746;10.058;2023-05-07T13:21:53;15.69;63.68
67279;DHT22;54193;53.746;10.058;2023-05-07T13:24:38;15.71;64.54
67279;DHT22;54193;53.746;10.058;2023-05-07T13:27:27;15.70;64.13
67279;DHT22;54193;53.746;10.058;2023-05-07T13:30:12;15.74;63.79
67279;DHT22;54193;53.746;10.058;2023-05-07T13:32:58;15.28;63.98
67279;DHT22;54193;53.746;10.058;2023-05-07T13:35:44;15.83;63.29
67279;DHT22;54193;53.746;10.058;2023-05-07T13:38:30;15.56;62.06
67279;DHT22;54193;53.746;10.058;2023-05-07T13:41:15;15.45;62.08
67279;DHT22;54193;53.746;10.058;2023-05-07T13:44:01;15.42;62.59
67279;DHT22;54193;53.746;10.058;2023-05-07T13:46:47;15.73;60.54
67279;DHT22;54193;53.746;10.058;2023-05-07T13:49:32;15.83;61.12
67279;DHT22;54193;53.746;10.058;2023-05-07T13:52:18;15.90;60.95
67279;DHT22;54193;53.746;10.058;2023-05-07T13:55:04;15.62;61.45
67279;DHT22;54193;53.746;10.058;2023-05-07T13:57:57;15.69;63.26
67279;DHT22;54193;53.746;10.058;2023-05-07T14:00:43;15.66;61.27
67279;DHT22;54193;53.746;10.058;2023-05-07T14:03:29;15.70;62.25
67279;DHT22;54193;53.746;10.058;2023-05-07T14:06:17;15.60;60.34
67279;DHT22;54193;53.746;10.058;2023-05-07T14:09:02;15.70;61.28
67279;DHT22;54193;53.746;10.058;2023-05-07T14:11:48;15.80;61.48
67279;DHT22;54193;53.746;10.058;2023-05-07T14:14:36;15.82;60.66
67279;DHT22;54193;53.746;10.058;2023-05-07T14:17:22;15.94;61.52
67279;DHT22;54193;53.746;10.058;2023-05-07T14:20:11;15.91;60.06
67279;DHT22;54193;53.746;10.058;2023-05-07T14:22:57;15.94;61.47
67279;DHT22;54193;53.746;10.058;2023-05-07T14:25:42;15.96;59.93
67279;DHT22;54193;53.746;10.058;2023-05-07T14:28:28;16.10;59.43
67279;DHT22;54193;53.746;10.058;2023-05-07T14:31:14;16.03;60.63
67279;DHT22;54193;53.746;10.058;2023-05-07T14:34:00;15.98;61.23
67279;DHT22;54193;53.746;10.058;2023-05-07T14:36:45;16.08;61.84
67279;DHT22;54193;53.746;10.058;2023-05-07T14:39:31;16.03;60.88
67279;DHT22;54193;53.746;10.058;2023-05-07T14:42:17;16.03;60.77
67279;DHT22;54193;53.746;10.058;2023-05-07T14:45:03;16.11;60.44
67279;DHT22;54193;53.746;10.058;2023-05-07T14:47:49;15.94;60.60
67279;DHT22;54193;53.746;10.058;2023-05-07T14:50:34;15.84;60.94
67279;DHT22;54193;53.746;10.058;2023-05-07T14:53:20;15.76;59.69
67279;DHT22;54193;53.746;10.058;2023-05-07T14:56:06;15.66;60.44
67279;DHT22;54193;53.746;10.058;2023-05-07T14:58:51;15.53;61.56
67279;DHT22;54193;53.746;10.058;2023-05-07T15:01:37;15.35;62.25
67279;DHT22;54193;53.746;10.058;2023-05-07T15:04:23;15.25;62.60
67279;DHT22;54193;53.746;10.058;2023-05-07T15:07:09;15.11;62.55
67279;DHT22;54193;53.746;10.058;2023-05-07T15:09:55;15.11;62.85
67279;DHT22;54193;53.746;10.058;2023-05-07T15:12:41;15.10;63.25
67279;DHT22;54193;53.746;10.058;2023-05-07T15:15:27;15.08;62.70
67279;DHT22;54193;53.746;10.058;2023-05-07T15:18:14;15.04;63.04
67279;DHT22;54193;53.746;10.058;2023-05-07T15:20:59;15.00;63.65
67279;DHT22;54193;53.746;10.058;2023-05-07T15:23:45;14.94;64.23
67279;DHT22;54193;53.746;10.058;2023-05-07T15:26:31;14.98;64.18
67279;DHT22;54193;53.746;10.058;2023-05-07T15:29:16;15.01;63.44
67279;DHT22;54193;53.746;10.058;2023-05-07T15:32:02;15.01;63.36
67279;DHT22;54193;53.746;10.058;2023-05-07T15:34:48;14.95;63.16
67279;DHT22;54193;53.746;10.058;2023-05-07T15:37:34;14.98;63.42
67279;DHT22;54193;53.746;10.058;2023-05-07T15:40:19;15.01;63.53
67279;DHT22;54193;53.746;10.058;2023-05-07T15:43:05;15.15;63.11
67279;DHT22;54193;53.746;10.058;2023-05-07T15:45:51;15.29;62.32
67279;DHT22;54193;53.746;10.058;2023-05-07T15:48:36;15.31;62.92
67279;DHT22;54193;53.746;10.058;2023-05-07T15:51:22;15.39;63.31
67279;DHT22;54193;53.746;10.058;2023-05-07T15:54:08;15.52;62.72
67279;DHT22;54193;53.746;10.058;2023-05-07T15:56:53;15.63;62.73
67279;DHT22;54193;53.746;10.058;2023-05-07T15:59:39;15.67;62.55
67279;DHT22;54193;53.746;10.058;2023-05-07T16:02:24;15.67;61.95
67279;DHT22;54193;53.746;10.058;2023-05-07T16:05:11;15.65;61.82
67279;DHT22;54193;53.746;10.058;2023-05-07T16:07:57;15.67;62.20
67279;DHT22;54193;53.746;10.058;2023-05-07T16:10:44;15.65;61.57
67279;DHT22;54193;53.746;10.058;2023-05-07T16:13:30;15.55;60.78
67279;DHT22;54193;53.746;10.058;2023-05-07T16:16:15;15.48;62.06
67279;DHT22;54193;53.746;10.058;2023-05-07T16:19:01;15.31;60.35
67279;DHT22;54193;53.746;10.058;2023-05-07T16:21:47;15.19;60.48
67279;DHT22;54193;53.746;10.058;2023-05-07T16:24:32;15.17;60.76
67279;DHT22;54193;53.746;10.058;2023-05-07T16:27:18;15.14;60.89
67279;DHT22;54193;53.746;10.058;2023-05-07T16:30:04;15.11;61.56
67279;DHT22;54193;53.746;10.058;2023-05-07T16:32:50;15.02;61.55
67279;DHT22;54193;53.746;10.058;2023-05-07T16:35:35;14.98;61.04
67279;DHT22;54193;53.746;10.058;2023-05-07T16:38:21;14.90;61.64
67279;DHT22;54193;53.746;10.058;2023-05-07T16:41:06;14.85;62.24
67279;DHT22;54193;53.746;10.058;2023-05-07T16:43:52;14.74;62.75
67279;DHT22;54193;53.746;10.058;2023-05-07T16:46:38;14.67;62.36
67279;DHT22;54193;53.746;10.058;2023-05-07T16:49:23;14.63;63.47
67279;DHT22;54193;53.746;10.058;2023-05-07T16:52:09;14.56;63.20
67279;DHT22;54193;53.746;10.058;2023-05-07T16:54:55;14.50;64.12
67279;DHT22;54193;53.746;10.058;2023-05-07T16:57:45;14.49;63.96
67279;DHT22;54193;53.746;10.058;2023-05-07T17:00:30;14.33;65.10
67279;DHT22;54193;53.746;10.058;2023-05-07T17:03:16;14.37;64.58
67279;DHT22;54193;53.746;10.058;2023-05-07T17:06:02;14.37;64.02
67279;DHT22;54193;53.746;10.058;2023-05-07T17:08:48;14.37;63.96
67279;DHT22;54193;53.746;10.058;2023-05-07T17:11:35;14.35;64.06
67279;DHT22;54193;53.746;10.058;2023-05-07T17:14:21;14.28;64.90
67279;DHT22;54193;53.746;10.058;2023-05-07T17:17:07;14.21;64.93
67279;DHT22;54193;53.746;10.058;2023-05-07T17:19:52;14.18;64.82
67279;DHT22;54193;53.746;10.058;2023-05-07T17:22:38;14.15;65.05
67279;DHT22;54193;53.746;10.058;2023-05-07T17:25:24;14.12;65.29
67279;DHT22;54193;53.746;10.058;2023-05-07T17:28:12;14.05;65.96
67279;DHT22;54193;53.746;10.058;2023-05-07T17:30:58;14.05;65.52
67279;DHT22;54193;53.746;10.058;2023-05-07T17:33:43;13.91;66.48
67279;DHT22;54193;53.746;10.058;2023-05-07T17:36:29;13.80;66.84